Terminal Aerodrome Forecast
Issued by NWS

Home | Current Version | Previous Version | Text Only | Print | Product List | Glossary On
Versions: 1 2 3 4 5 6 7 8 9 10 11 12 13 14 15 16 17 18 19 20 21 22 23 24 25 26 27 28 29 30 31 32 33 34
949
FTUS43 KFGF 200520
TAFDVL
TAF
KDVL 200520Z 2006/2106 20015KT P6SM FEW200 WS003/19040KT
     FM200800 24006KT P6SM BKN150
     FM201500 29007KT P6SM SCT180
     FM201700 01013KT P6SM BKN070=

USA.gov is the U.S. government's official web portal to all federal, state and local government web resources and services.